Flatonia, Texas
Current Conditions -  °F | °C
As of 7:10 AM on Monday 22 Dec 2014 (Local Time) from K3T5 Reporting Station
Overcast Overcast  
Wind Chill: 60°   Ceiling: 2500
Heat Index: 60°   Visibility: 7mi
Dew Point: 59°   Wind: 6mph
Humidity: 96%   Direction: 240°WSW
Pressure: 29.75"   Gusts: NA
Location:  29.69°N, 97.11°W
Report Text: K3T5 221310Z AUTO 24005KT 7SM SCT007 SCT013 OVC025 16/15 A2975 RMK AO2 T01560150
Loading
Personal Weather Stations






























Interactive Weather Map New forecast layout! Learn more

10-Day Weather Forecast

Advertisements
Track Severe Weather on mobile